sensor_id;sensor_type;location;lat;lon;timestamp;P1;durP1;ratioP1;P2;durP2;ratioP2
69890;SDS011;57170;43.964;21.262;2022-09-29T00:01:57;26.77;;;16.52;;
69890;SDS011;57170;43.964;21.262;2022-09-29T00:04:23;21.88;;;15.38;;
69890;SDS011;57170;43.964;21.262;2022-09-29T00:06:49;22.10;;;16.02;;
69890;SDS011;57170;43.964;21.262;2022-09-29T00:09:15;19.15;;;13.90;;
69890;SDS011;57170;43.964;21.262;2022-09-29T00:11:41;17.48;;;13.55;;
69890;SDS011;57170;43.964;21.262;2022-09-29T00:14:08;26.40;;;15.75;;
69890;SDS011;57170;43.964;21.262;2022-09-29T00:16:34;21.75;;;15.48;;
69890;SDS011;57170;43.964;21.262;2022-09-29T00:19:00;23.45;;;14.55;;
69890;SDS011;57170;43.964;21.262;2022-09-29T00:21:26;18.60;;;14.45;;
69890;SDS011;57170;43.964;21.262;2022-09-29T00:23:52;24.63;;;16.25;;
69890;SDS011;57170;43.964;21.262;2022-09-29T00:26:20;22.02;;;14.23;;
69890;SDS011;57170;43.964;21.262;2022-09-29T00:28:50;18.80;;;15.45;;
69890;SDS011;57170;43.964;21.262;2022-09-29T00:31:18;17.83;;;13.95;;
69890;SDS011;57170;43.964;21.262;2022-09-29T00:33:44;28.52;;;14.98;;
69890;SDS011;57170;43.964;21.262;2022-09-29T00:36:13;21.45;;;15.63;;
69890;SDS011;57170;43.964;21.262;2022-09-29T00:38:39;19.35;;;15.18;;
69890;SDS011;57170;43.964;21.262;2022-09-29T00:41:06;18.15;;;13.43;;
69890;SDS011;57170;43.964;21.262;2022-09-29T00:46:11;18.42;;;13.60;;
69890;SDS011;57170;43.964;21.262;2022-09-29T00:48:39;14.75;;;12.85;;
69890;SDS011;57170;43.964;21.262;2022-09-29T00:51:05;22.92;;;14.73;;
69890;SDS011;57170;43.964;21.262;2022-09-29T00:53:32;24.70;;;16.95;;
69890;SDS011;57170;43.964;21.262;2022-09-29T00:56:00;20.67;;;15.68;;
69890;SDS011;57170;43.964;21.262;2022-09-29T01:00:53;19.00;;;12.93;;
69890;SDS011;57170;43.964;21.262;2022-09-29T01:03:19;16.50;;;10.73;;
69890;SDS011;57170;43.964;21.262;2022-09-29T01:06:21;17.65;;;12.50;;
69890;SDS011;57170;43.964;21.262;2022-09-29T01:11:24;22.80;;;15.63;;
69890;SDS011;57170;43.964;21.262;2022-09-29T01:13:50;20.83;;;17.27;;
69890;SDS011;57170;43.964;21.262;2022-09-29T01:16:17;23.25;;;18.10;;
69890;SDS011;57170;43.964;21.262;2022-09-29T01:18:43;30.90;;;19.38;;
69890;SDS011;57170;43.964;21.262;2022-09-29T01:31:40;25.13;;;18.73;;
69890;SDS011;57170;43.964;21.262;2022-09-29T01:34:24;25.13;;;17.77;;
69890;SDS011;57170;43.964;21.262;2022-09-29T01:42:21;20.30;;;15.25;;
69890;SDS011;57170;43.964;21.262;2022-09-29T01:44:49;28.60;;;16.42;;
69890;SDS011;57170;43.964;21.262;2022-09-29T01:47:33;20.17;;;15.38;;
69890;SDS011;57170;43.964;21.262;2022-09-29T01:50:02;23.00;;;16.48;;
69890;SDS011;57170;43.964;21.262;2022-09-29T01:52:30;23.23;;;16.33;;
69890;SDS011;57170;43.964;21.262;2022-09-29T01:54:59;19.02;;;15.40;;
69890;SDS011;57170;43.964;21.262;2022-09-29T02:02:35;20.27;;;14.52;;
69890;SDS011;57170;43.964;21.262;2022-09-29T02:05:03;21.27;;;14.98;;
69890;SDS011;57170;43.964;21.262;2022-09-29T02:07:35;20.85;;;16.10;;
69890;SDS011;57170;43.964;21.262;2022-09-29T02:10:03;22.92;;;16.58;;
69890;SDS011;57170;43.964;21.262;2022-09-29T02:12:31;22.90;;;16.50;;
69890;SDS011;57170;43.964;21.262;2022-09-29T02:14:58;18.70;;;15.23;;
69890;SDS011;57170;43.964;21.262;2022-09-29T02:17:29;22.45;;;15.80;;
69890;SDS011;57170;43.964;21.262;2022-09-29T02:19:56;17.60;;;13.52;;
69890;SDS011;57170;43.964;21.262;2022-09-29T02:22:22;22.92;;;15.65;;
69890;SDS011;57170;43.964;21.262;2022-09-29T02:24:48;22.00;;;16.02;;
69890;SDS011;57170;43.964;21.262;2022-09-29T02:27:17;25.75;;;16.52;;
69890;SDS011;57170;43.964;21.262;2022-09-29T02:29:43;20.77;;;15.77;;
69890;SDS011;57170;43.964;21.262;2022-09-29T02:32:09;24.48;;;18.10;;
69890;SDS011;57170;43.964;21.262;2022-09-29T02:34:37;25.88;;;16.42;;
69890;SDS011;57170;43.964;21.262;2022-09-29T02:42:32;19.50;;;16.25;;
69890;SDS011;57170;43.964;21.262;2022-09-29T02:45:17;21.10;;;15.38;;
69890;SDS011;57170;43.964;21.262;2022-09-29T02:55:18;20.88;;;15.77;;
69890;SDS011;57170;43.964;21.262;2022-09-29T03:00:15;19.25;;;14.13;;
69890;SDS011;57170;43.964;21.262;2022-09-29T03:02:42;20.92;;;14.85;;
69890;SDS011;57170;43.964;21.262;2022-09-29T03:05:09;21.20;;;13.02;;
69890;SDS011;57170;43.964;21.262;2022-09-29T03:07:36;26.08;;;12.48;;
69890;SDS011;57170;43.964;21.262;2022-09-29T03:10:03;19.30;;;12.70;;
69890;SDS011;57170;43.964;21.262;2022-09-29T03:12:29;15.70;;;11.88;;
69890;SDS011;57170;43.964;21.262;2022-09-29T03:14:55;20.02;;;11.35;;
69890;SDS011;57170;43.964;21.262;2022-09-29T03:17:21;17.75;;;11.52;;
69890;SDS011;57170;43.964;21.262;2022-09-29T03:19:48;15.68;;;10.73;;
69890;SDS011;57170;43.964;21.262;2022-09-29T03:22:14;18.88;;;12.27;;
69890;SDS011;57170;43.964;21.262;2022-09-29T03:24:40;21.17;;;13.00;;
69890;SDS011;57170;43.964;21.262;2022-09-29T03:27:06;16.27;;;12.45;;
69890;SDS011;57170;43.964;21.262;2022-09-29T03:29:34;16.98;;;12.80;;
69890;SDS011;57170;43.964;21.262;2022-09-29T03:32:00;20.58;;;13.90;;
69890;SDS011;57170;43.964;21.262;2022-09-29T03:34:27;25.85;;;15.15;;
69890;SDS011;57170;43.964;21.262;2022-09-29T03:36:53;18.15;;;12.50;;
69890;SDS011;57170;43.964;21.262;2022-09-29T03:39:22;17.23;;;12.00;;
69890;SDS011;57170;43.964;21.262;2022-09-29T03:41:48;18.85;;;13.60;;
69890;SDS011;57170;43.964;21.262;2022-09-29T03:44:14;24.65;;;14.65;;
69890;SDS011;57170;43.964;21.262;2022-09-29T03:46:40;19.65;;;12.55;;
69890;SDS011;57170;43.964;21.262;2022-09-29T03:49:10;22.48;;;13.20;;
69890;SDS011;57170;43.964;21.262;2022-09-29T03:51:37;18.38;;;12.45;;
69890;SDS011;57170;43.964;21.262;2022-09-29T03:54:03;21.70;;;12.48;;
69890;SDS011;57170;43.964;21.262;2022-09-29T03:56:29;25.58;;;14.73;;
69890;SDS011;57170;43.964;21.262;2022-09-29T03:58:55;24.17;;;15.20;;
69890;SDS011;57170;43.964;21.262;2022-09-29T04:01:22;18.38;;;14.07;;
69890;SDS011;57170;43.964;21.262;2022-09-29T04:03:48;20.50;;;13.65;;
69890;SDS011;57170;43.964;21.262;2022-09-29T04:06:14;20.65;;;14.15;;
69890;SDS011;57170;43.964;21.262;2022-09-29T04:08:40;30.63;;;14.85;;
69890;SDS011;57170;43.964;21.262;2022-09-29T04:11:06;22.05;;;13.98;;
69890;SDS011;57170;43.964;21.262;2022-09-29T04:13:32;19.85;;;13.55;;
69890;SDS011;57170;43.964;21.262;2022-09-29T04:16:03;18.75;;;13.63;;
69890;SDS011;57170;43.964;21.262;2022-09-29T04:18:29;20.42;;;13.15;;
69890;SDS011;57170;43.964;21.262;2022-09-29T04:20:56;21.08;;;14.07;;
69890;SDS011;57170;43.964;21.262;2022-09-29T04:23:27;25.85;;;14.85;;
69890;SDS011;57170;43.964;21.262;2022-09-29T04:25:56;23.70;;;13.82;;
69890;SDS011;57170;43.964;21.262;2022-09-29T04:28:22;22.75;;;14.13;;
69890;SDS011;57170;43.964;21.262;2022-09-29T04:30:49;25.45;;;12.95;;
69890;SDS011;57170;43.964;21.262;2022-09-29T04:33:15;21.42;;;11.65;;
69890;SDS011;57170;43.964;21.262;2022-09-29T04:35:41;20.58;;;9.98;;
69890;SDS011;57170;43.964;21.262;2022-09-29T04:38:07;19.95;;;10.30;;
69890;SDS011;57170;43.964;21.262;2022-09-29T04:40:34;15.45;;;10.32;;
69890;SDS011;57170;43.964;21.262;2022-09-29T04:43:00;15.85;;;9.38;;
69890;SDS011;57170;43.964;21.262;2022-09-29T04:45:27;16.02;;;11.43;;
69890;SDS011;57170;43.964;21.262;2022-09-29T04:47:54;20.33;;;10.52;;
69890;SDS011;57170;43.964;21.262;2022-09-29T04:50:20;18.10;;;9.73;;
69890;SDS011;57170;43.964;21.262;2022-09-29T04:52:46;18.38;;;9.95;;
69890;SDS011;57170;43.964;21.262;2022-09-29T04:55:12;18.40;;;10.52;;
69890;SDS011;57170;43.964;21.262;2022-09-29T04:57:40;19.52;;;11.00;;
69890;SDS011;57170;43.964;21.262;2022-09-29T05:00:06;14.55;;;9.13;;
69890;SDS011;57170;43.964;21.262;2022-09-29T05:02:33;15.80;;;9.60;;
69890;SDS011;57170;43.964;21.262;2022-09-29T05:04:59;15.57;;;10.43;;
69890;SDS011;57170;43.964;21.262;2022-09-29T05:07:25;20.83;;;12.23;;
69890;SDS011;57170;43.964;21.262;2022-09-29T05:09:52;15.90;;;10.73;;
69890;SDS011;57170;43.964;21.262;2022-09-29T05:12:18;15.85;;;10.07;;
69890;SDS011;57170;43.964;21.262;2022-09-29T05:14:45;15.20;;;9.85;;
69890;SDS011;57170;43.964;21.262;2022-09-29T05:17:11;17.50;;;9.88;;
69890;SDS011;57170;43.964;21.262;2022-09-29T05:19:37;17.55;;;9.13;;
69890;SDS011;57170;43.964;21.262;2022-09-29T05:22:04;14.40;;;8.30;;
69890;SDS011;57170;43.964;21.262;2022-09-29T05:24:30;15.40;;;8.48;;
69890;SDS011;57170;43.964;21.262;2022-09-29T05:26:56;17.10;;;8.18;;
69890;SDS011;57170;43.964;21.262;2022-09-29T05:29:23;16.85;;;9.85;;
69890;SDS011;57170;43.964;21.262;2022-09-29T05:31:49;13.75;;;10.30;;
69890;SDS011;57170;43.964;21.262;2022-09-29T05:34:16;17.30;;;9.90;;
69890;SDS011;57170;43.964;21.262;2022-09-29T05:36:42;15.50;;;9.40;;
69890;SDS011;57170;43.964;21.262;2022-09-29T05:39:09;12.60;;;8.13;;
69890;SDS011;57170;43.964;21.262;2022-09-29T05:41:35;17.83;;;8.52;;
69890;SDS011;57170;43.964;21.262;2022-09-29T05:44:01;15.30;;;8.38;;
69890;SDS011;57170;43.964;21.262;2022-09-29T05:46:27;15.50;;;8.70;;
69890;SDS011;57170;43.964;21.262;2022-09-29T05:48:54;18.63;;;8.95;;
69890;SDS011;57170;43.964;21.262;2022-09-29T05:51:22;12.40;;;7.85;;
69890;SDS011;57170;43.964;21.262;2022-09-29T05:53:49;14.50;;;8.55;;
69890;SDS011;57170;43.964;21.262;2022-09-29T05:56:17;21.20;;;10.50;;
69890;SDS011;57170;43.964;21.262;2022-09-29T05:58:43;20.52;;;10.55;;
69890;SDS011;57170;43.964;21.262;2022-09-29T06:01:13;16.17;;;10.70;;
69890;SDS011;57170;43.964;21.262;2022-09-29T06:03:40;16.25;;;11.10;;
69890;SDS011;57170;43.964;21.262;2022-09-29T06:06:11;20.90;;;11.85;;
69890;SDS011;57170;43.964;21.262;2022-09-29T06:08:37;18.00;;;11.60;;
69890;SDS011;57170;43.964;21.262;2022-09-29T06:11:14;19.42;;;10.60;;
69890;SDS011;57170;43.964;21.262;2022-09-29T06:13:40;16.15;;;10.20;;
69890;SDS011;57170;43.964;21.262;2022-09-29T06:16:07;15.80;;;11.30;;
69890;SDS011;57170;43.964;21.262;2022-09-29T06:18:33;16.63;;;11.15;;
69890;SDS011;57170;43.964;21.262;2022-09-29T06:21:03;21.65;;;11.65;;
69890;SDS011;57170;43.964;21.262;2022-09-29T06:23:30;20.35;;;12.32;;
69890;SDS011;57170;43.964;21.262;2022-09-29T06:26:00;19.27;;;10.32;;
69890;SDS011;57170;43.964;21.262;2022-09-29T06:28:27;20.02;;;14.13;;
69890;SDS011;57170;43.964;21.262;2022-09-29T06:30:57;22.95;;;14.55;;
69890;SDS011;57170;43.964;21.262;2022-09-29T06:33:24;22.58;;;15.48;;
69890;SDS011;57170;43.964;21.262;2022-09-29T06:35:50;16.95;;;12.30;;
69890;SDS011;57170;43.964;21.262;2022-09-29T06:38:35;21.60;;;12.25;;
69890;SDS011;57170;43.964;21.262;2022-09-29T06:41:01;17.48;;;12.05;;
69890;SDS011;57170;43.964;21.262;2022-09-29T06:43:27;18.33;;;11.30;;
69890;SDS011;57170;43.964;21.262;2022-09-29T06:45:53;13.13;;;9.57;;
69890;SDS011;57170;43.964;21.262;2022-09-29T06:48:20;15.93;;;8.80;;
69890;SDS011;57170;43.964;21.262;2022-09-29T06:50:46;14.70;;;9.52;;
69890;SDS011;57170;43.964;21.262;2022-09-29T06:53:12;17.08;;;10.68;;
69890;SDS011;57170;43.964;21.262;2022-09-29T06:55:39;16.00;;;11.80;;
69890;SDS011;57170;43.964;21.262;2022-09-29T06:58:05;17.50;;;12.15;;
69890;SDS011;57170;43.964;21.262;2022-09-29T07:00:31;20.70;;;11.35;;
69890;SDS011;57170;43.964;21.262;2022-09-29T07:02:58;17.00;;;10.15;;
69890;SDS011;57170;43.964;21.262;2022-09-29T07:05:24;16.33;;;7.97;;
69890;SDS011;57170;43.964;21.262;2022-09-29T07:07:50;15.00;;;8.00;;
69890;SDS011;57170;43.964;21.262;2022-09-29T07:10:17;14.93;;;6.57;;
69890;SDS011;57170;43.964;21.262;2022-09-29T07:12:43;8.77;;;5.93;;
69890;SDS011;57170;43.964;21.262;2022-09-29T07:15:11;10.35;;;5.63;;
69890;SDS011;57170;43.964;21.262;2022-09-29T07:17:37;16.50;;;5.90;;
69890;SDS011;57170;43.964;21.262;2022-09-29T07:20:04;14.48;;;8.38;;
69890;SDS011;57170;43.964;21.262;2022-09-29T07:22:30;20.90;;;9.05;;
69890;SDS011;57170;43.964;21.262;2022-09-29T07:24:56;12.05;;;7.47;;
69890;SDS011;57170;43.964;21.262;2022-09-29T07:27:22;21.75;;;11.77;;
69890;SDS011;57170;43.964;21.262;2022-09-29T07:29:49;22.00;;;13.13;;
69890;SDS011;57170;43.964;21.262;2022-09-29T07:32:16;23.42;;;16.23;;
69890;SDS011;57170;43.964;21.262;2022-09-29T07:34:42;16.85;;;12.35;;
69890;SDS011;57170;43.964;21.262;2022-09-29T07:37:08;23.80;;;13.48;;
69890;SDS011;57170;43.964;21.262;2022-09-29T07:39:34;27.25;;;14.73;;
69890;SDS011;57170;43.964;21.262;2022-09-29T07:42:01;23.65;;;16.02;;
69890;SDS011;57170;43.964;21.262;2022-09-29T07:44:27;23.27;;;14.43;;
69890;SDS011;57170;43.964;21.262;2022-09-29T07:46:56;22.58;;;15.10;;
69890;SDS011;57170;43.964;21.262;2022-09-29T07:49:22;21.75;;;15.15;;
69890;SDS011;57170;43.964;21.262;2022-09-29T07:51:48;13.88;;;7.50;;
69890;SDS011;57170;43.964;21.262;2022-09-29T07:54:14;18.70;;;14.10;;
69890;SDS011;57170;43.964;21.262;2022-09-29T07:56:40;13.05;;;7.82;;
69890;SDS011;57170;43.964;21.262;2022-09-29T07:59:08;13.60;;;8.50;;
69890;SDS011;57170;43.964;21.262;2022-09-29T08:01:34;15.00;;;5.45;;
69890;SDS011;57170;43.964;21.262;2022-09-29T08:04:01;9.52;;;5.50;;
69890;SDS011;57170;43.964;21.262;2022-09-29T08:06:27;10.82;;;4.95;;
69890;SDS011;57170;43.964;21.262;2022-09-29T08:08:53;10.82;;;4.22;;
69890;SDS011;57170;43.964;21.262;2022-09-29T08:11:19;7.82;;;4.15;;
69890;SDS011;57170;43.964;21.262;2022-09-29T08:13:46;7.05;;;4.35;;
69890;SDS011;57170;43.964;21.262;2022-09-29T08:16:13;10.55;;;4.97;;
69890;SDS011;57170;43.964;21.262;2022-09-29T08:18:40;9.25;;;4.50;;
69890;SDS011;57170;43.964;21.262;2022-09-29T08:21:06;11.63;;;4.22;;
69890;SDS011;57170;43.964;21.262;2022-09-29T08:23:36;13.70;;;5.05;;
69890;SDS011;57170;43.964;21.262;2022-09-29T08:26:04;6.75;;;4.38;;
69890;SDS011;57170;43.964;21.262;2022-09-29T08:28:31;12.07;;;4.13;;
69890;SDS011;57170;43.964;21.262;2022-09-29T08:31:01;11.10;;;4.90;;
69890;SDS011;57170;43.964;21.262;2022-09-29T08:33:27;9.43;;;5.22;;
69890;SDS011;57170;43.964;21.262;2022-09-29T08:35:58;11.55;;;4.93;;
69890;SDS011;57170;43.964;21.262;2022-09-29T08:38:25;8.05;;;5.63;;
69890;SDS011;57170;43.964;21.262;2022-09-29T08:40:51;12.18;;;5.40;;
69890;SDS011;57170;43.964;21.262;2022-09-29T08:43:19;9.88;;;5.28;;
69890;SDS011;57170;43.964;21.262;2022-09-29T08:45:53;11.13;;;5.15;;
69890;SDS011;57170;43.964;21.262;2022-09-29T08:48:22;8.85;;;5.25;;
69890;SDS011;57170;43.964;21.262;2022-09-29T08:51:00;11.65;;;5.35;;
69890;SDS011;57170;43.964;21.262;2022-09-29T08:53:28;8.45;;;4.32;;
69890;SDS011;57170;43.964;21.262;2022-09-29T08:55:59;6.10;;;4.18;;
69890;SDS011;57170;43.964;21.262;2022-09-29T08:58:26;8.13;;;4.38;;
69890;SDS011;57170;43.964;21.262;2022-09-29T09:24:57;10.65;;;6.70;;
69890;SDS011;57170;43.964;21.262;2022-09-29T09:27:23;13.57;;;6.22;;
69890;SDS011;57170;43.964;21.262;2022-09-29T09:29:53;9.82;;;6.28;;
69890;SDS011;57170;43.964;21.262;2022-09-29T09:32:24;10.50;;;6.90;;
69890;SDS011;57170;43.964;21.262;2022-09-29T09:39:49;11.70;;;6.53;;
69890;SDS011;57170;43.964;21.262;2022-09-29T09:42:19;14.13;;;7.00;;
69890;SDS011;57170;43.964;21.262;2022-09-29T09:45:33;12.27;;;6.80;;
69890;SDS011;57170;43.964;21.262;2022-09-29T09:47:44;10.85;;;6.00;;
69890;SDS011;57170;43.964;21.262;2022-09-29T09:50:12;8.40;;;5.45;;
69890;SDS011;57170;43.964;21.262;2022-09-29T09:55:24;15.20;;;6.07;;
69890;SDS011;57170;43.964;21.262;2022-09-29T10:00:44;10.70;;;4.82;;
69890;SDS011;57170;43.964;21.262;2022-09-29T10:03:11;8.15;;;5.32;;
69890;SDS011;57170;43.964;21.262;2022-09-29T10:05:40;6.30;;;3.92;;
69890;SDS011;57170;43.964;21.262;2022-09-29T10:08:11;5.68;;;3.80;;
69890;SDS011;57170;43.964;21.262;2022-09-29T10:10:38;7.55;;;4.90;;
69890;SDS011;57170;43.964;21.262;2022-09-29T10:13:06;8.52;;;4.20;;
69890;SDS011;57170;43.964;21.262;2022-09-29T10:18:35;9.82;;;4.38;;
69890;SDS011;57170;43.964;21.262;2022-09-29T10:20:51;5.57;;;4.10;;
69890;SDS011;57170;43.964;21.262;2022-09-29T10:23:38;7.13;;;3.47;;
69890;SDS011;57170;43.964;21.262;2022-09-29T10:26:11;5.70;;;3.65;;
69890;SDS011;57170;43.964;21.262;2022-09-29T10:28:53;9.60;;;3.90;;
69890;SDS011;57170;43.964;21.262;2022-09-29T10:31:21;7.18;;;3.63;;
69890;SDS011;57170;43.964;21.262;2022-09-29T10:33:52;9.40;;;3.70;;
69890;SDS011;57170;43.964;21.262;2022-09-29T10:36:19;9.13;;;4.05;;
69890;SDS011;57170;43.964;21.262;2022-09-29T10:38:46;7.35;;;3.58;;
69890;SDS011;57170;43.964;21.262;2022-09-29T10:41:20;4.68;;;2.85;;
69890;SDS011;57170;43.964;21.262;2022-09-29T10:43:48;6.35;;;3.45;;
69890;SDS011;57170;43.964;21.262;2022-09-29T10:49:09;9.40;;;3.85;;
69890;SDS011;57170;43.964;21.262;2022-09-29T10:51:35;6.00;;;3.10;;
69890;SDS011;57170;43.964;21.262;2022-09-29T10:54:06;10.27;;;4.15;;
69890;SDS011;57170;43.964;21.262;2022-09-29T10:56:32;8.60;;;4.53;;
69890;SDS011;57170;43.964;21.262;2022-09-29T10:58:59;10.32;;;4.47;;
69890;SDS011;57170;43.964;21.262;2022-09-29T11:01:26;6.85;;;3.95;;
69890;SDS011;57170;43.964;21.262;2022-09-29T11:03:55;7.65;;;3.45;;
69890;SDS011;57170;43.964;21.262;2022-09-29T11:06:28;7.22;;;3.92;;
69890;SDS011;57170;43.964;21.262;2022-09-29T11:08:56;8.98;;;3.13;;
69890;SDS011;57170;43.964;21.262;2022-09-29T11:13:55;8.70;;;4.40;;
69890;SDS011;57170;43.964;21.262;2022-09-29T11:18:51;11.02;;;4.25;;
69890;SDS011;57170;43.964;21.262;2022-09-29T11:23:49;5.57;;;3.45;;
69890;SDS011;57170;43.964;21.262;2022-09-29T11:28:54;7.82;;;3.63;;
69890;SDS011;57170;43.964;21.262;2022-09-29T11:31:31;7.38;;;4.32;;
69890;SDS011;57170;43.964;21.262;2022-09-29T12:06:34;9.63;;;3.58;;
69890;SDS011;57170;43.964;21.262;2022-09-29T12:11:37;5.35;;;4.00;;
69890;SDS011;57170;43.964;21.262;2022-09-29T12:14:18;6.88;;;3.50;;
69890;SDS011;57170;43.964;21.262;2022-09-29T12:16:50;7.47;;;4.00;;
69890;SDS011;57170;43.964;21.262;2022-09-29T12:19:18;6.40;;;3.70;;
69890;SDS011;57170;43.964;21.262;2022-09-29T12:21:49;6.90;;;4.13;;
69890;SDS011;57170;43.964;21.262;2022-09-29T12:24:33;5.90;;;4.35;;
69890;SDS011;57170;43.964;21.262;2022-09-29T12:27:02;7.10;;;4.55;;
69890;SDS011;57170;43.964;21.262;2022-09-29T12:29:39;6.75;;;3.85;;
69890;SDS011;57170;43.964;21.262;2022-09-29T12:32:17;7.32;;;4.20;;
69890;SDS011;57170;43.964;21.262;2022-09-29T12:37:26;7.28;;;3.90;;
69890;SDS011;57170;43.964;21.262;2022-09-29T12:45:00;6.75;;;3.67;;
69890;SDS011;57170;43.964;21.262;2022-09-29T12:47:51;6.53;;;4.25;;
69890;SDS011;57170;43.964;21.262;2022-09-29T12:53:36;8.68;;;4.20;;
69890;SDS011;57170;43.964;21.262;2022-09-29T12:56:00;8.77;;;4.70;;
69890;SDS011;57170;43.964;21.262;2022-09-29T12:58:27;6.18;;;3.80;;
69890;SDS011;57170;43.964;21.262;2022-09-29T13:00:57;4.88;;;3.33;;
69890;SDS011;57170;43.964;21.262;2022-09-29T13:03:42;7.00;;;4.15;;
69890;SDS011;57170;43.964;21.262;2022-09-29T13:28:52;9.57;;;4.68;;
69890;SDS011;57170;43.964;21.262;2022-09-29T13:31:21;5.75;;;3.33;;
69890;SDS011;57170;43.964;21.262;2022-09-29T13:33:50;8.10;;;4.47;;
69890;SDS011;57170;43.964;21.262;2022-09-29T13:36:21;9.05;;;4.53;;
69890;SDS011;57170;43.964;21.262;2022-09-29T13:38:51;6.47;;;4.38;;
69890;SDS011;57170;43.964;21.262;2022-09-29T13:51:45;6.57;;;3.53;;
69890;SDS011;57170;43.964;21.262;2022-09-29T13:56:50;4.80;;;3.28;;
69890;SDS011;57170;43.964;21.262;2022-09-29T13:59:17;6.70;;;3.50;;
69890;SDS011;57170;43.964;21.262;2022-09-29T14:01:46;6.15;;;3.42;;
69890;SDS011;57170;43.964;21.262;2022-09-29T14:07:03;7.75;;;3.28;;
69890;SDS011;57170;43.964;21.262;2022-09-29T14:09:30;5.55;;;3.72;;
69890;SDS011;57170;43.964;21.262;2022-09-29T14:11:59;6.13;;;3.20;;
69890;SDS011;57170;43.964;21.262;2022-09-29T14:14:31;6.05;;;3.20;;
69890;SDS011;57170;43.964;21.262;2022-09-29T14:17:16;7.10;;;3.50;;
69890;SDS011;57170;43.964;21.262;2022-09-29T14:24:51;5.68;;;3.38;;
69890;SDS011;57170;43.964;21.262;2022-09-29T14:27:24;4.13;;;2.78;;
69890;SDS011;57170;43.964;21.262;2022-09-29T14:30:05;6.43;;;3.88;;
69890;SDS011;57170;43.964;21.262;2022-09-29T14:32:41;8.82;;;4.18;;
69890;SDS011;57170;43.964;21.262;2022-09-29T14:35:14;5.18;;;3.40;;
69890;SDS011;57170;43.964;21.262;2022-09-29T14:37:41;7.55;;;3.90;;
69890;SDS011;57170;43.964;21.262;2022-09-29T14:40:07;4.68;;;3.80;;
69890;SDS011;57170;43.964;21.262;2022-09-29T14:49:06;7.65;;;3.50;;
69890;SDS011;57170;43.964;21.262;2022-09-29T14:51:49;8.63;;;3.67;;
69890;SDS011;57170;43.964;21.262;2022-09-29T15:04:36;9.73;;;4.85;;
69890;SDS011;57170;43.964;21.262;2022-09-29T15:07:03;17.25;;;12.88;;
69890;SDS011;57170;43.964;21.262;2022-09-29T15:09:35;6.50;;;4.18;;
69890;SDS011;57170;43.964;21.262;2022-09-29T15:12:02;6.72;;;3.33;;
69890;SDS011;57170;43.964;21.262;2022-09-29T15:14:29;6.82;;;3.35;;
69890;SDS011;57170;43.964;21.262;2022-09-29T15:22:19;5.50;;;2.83;;
69890;SDS011;57170;43.964;21.262;2022-09-29T15:24:54;6.97;;;2.92;;
69890;SDS011;57170;43.964;21.262;2022-09-29T15:27:24;9.25;;;4.57;;
69890;SDS011;57170;43.964;21.262;2022-09-29T15:29:53;4.45;;;2.40;;
69890;SDS011;57170;43.964;21.262;2022-09-29T15:32:23;4.63;;;2.40;;
69890;SDS011;57170;43.964;21.262;2022-09-29T15:34:51;5.53;;;2.70;;
69890;SDS011;57170;43.964;21.262;2022-09-29T15:37:18;5.35;;;2.33;;
69890;SDS011;57170;43.964;21.262;2022-09-29T15:39:50;6.32;;;3.15;;
69890;SDS011;57170;43.964;21.262;2022-09-29T15:44:46;7.93;;;2.50;;
69890;SDS011;57170;43.964;21.262;2022-09-29T15:47:19;6.88;;;3.00;;
69890;SDS011;57170;43.964;21.262;2022-09-29T15:49:48;10.70;;;6.70;;
69890;SDS011;57170;43.964;21.262;2022-09-29T15:52:15;8.40;;;3.63;;
69890;SDS011;57170;43.964;21.262;2022-09-29T15:54:42;4.53;;;2.60;;
69890;SDS011;57170;43.964;21.262;2022-09-29T16:02:59;6.82;;;2.88;;
69890;SDS011;57170;43.964;21.262;2022-09-29T16:05:29;4.82;;;2.20;;
69890;SDS011;57170;43.964;21.262;2022-09-29T16:10:28;4.40;;;2.90;;
69890;SDS011;57170;43.964;21.262;2022-09-29T16:13:02;5.43;;;2.72;;
69890;SDS011;57170;43.964;21.262;2022-09-29T16:15:42;8.43;;;3.63;;
69890;SDS011;57170;43.964;21.262;2022-09-29T16:18:10;6.40;;;3.58;;
69890;SDS011;57170;43.964;21.262;2022-09-29T16:20:41;4.60;;;2.10;;
69890;SDS011;57170;43.964;21.262;2022-09-29T16:23:13;6.65;;;3.63;;
69890;SDS011;57170;43.964;21.262;2022-09-29T16:25:42;6.43;;;2.60;;
69890;SDS011;57170;43.964;21.262;2022-09-29T16:28:24;5.57;;;2.90;;
69890;SDS011;57170;43.964;21.262;2022-09-29T16:31:00;4.95;;;3.13;;
69890;SDS011;57170;43.964;21.262;2022-09-29T16:33:27;9.07;;;4.50;;
69890;SDS011;57170;43.964;21.262;2022-09-29T16:40:49;17.23;;;13.85;;
69890;SDS011;57170;43.964;21.262;2022-09-29T16:45:47;12.05;;;8.95;;
69890;SDS011;57170;43.964;21.262;2022-09-29T16:48:15;5.40;;;3.60;;
69890;SDS011;57170;43.964;21.262;2022-09-29T16:50:45;4.60;;;3.30;;
69890;SDS011;57170;43.964;21.262;2022-09-29T16:53:30;8.05;;;3.60;;
69890;SDS011;57170;43.964;21.262;2022-09-29T16:55:58;6.65;;;3.60;;
69890;SDS011;57170;43.964;21.262;2022-09-29T16:58:25;6.55;;;3.20;;
69890;SDS011;57170;43.964;21.262;2022-09-29T17:00:51;6.53;;;3.60;;
69890;SDS011;57170;43.964;21.262;2022-09-29T17:03:17;8.00;;;3.67;;
69890;SDS011;57170;43.964;21.262;2022-09-29T17:05:43;7.05;;;3.72;;
69890;SDS011;57170;43.964;21.262;2022-09-29T17:08:15;6.97;;;3.33;;
69890;SDS011;57170;43.964;21.262;2022-09-29T17:10:41;6.45;;;3.03;;
69890;SDS011;57170;43.964;21.262;2022-09-29T17:13:10;5.82;;;3.63;;
69890;SDS011;57170;43.964;21.262;2022-09-29T17:15:41;6.78;;;3.85;;
69890;SDS011;57170;43.964;21.262;2022-09-29T17:18:11;12.50;;;8.30;;
69890;SDS011;57170;43.964;21.262;2022-09-29T17:20:37;5.68;;;4.03;;
69890;SDS011;57170;43.964;21.262;2022-09-29T17:23:03;12.52;;;4.50;;
69890;SDS011;57170;43.964;21.262;2022-09-29T17:25:31;8.40;;;4.03;;
69890;SDS011;57170;43.964;21.262;2022-09-29T17:27:57;9.27;;;3.88;;
69890;SDS011;57170;43.964;21.262;2022-09-29T17:30:36;7.97;;;3.40;;
69890;SDS011;57170;43.964;21.262;2022-09-29T17:33:03;7.32;;;2.78;;
69890;SDS011;57170;43.964;21.262;2022-09-29T17:35:33;6.03;;;2.80;;
69890;SDS011;57170;43.964;21.262;2022-09-29T17:38:00;5.03;;;2.78;;
69890;SDS011;57170;43.964;21.262;2022-09-29T17:40:31;8.30;;;3.65;;
69890;SDS011;57170;43.964;21.262;2022-09-29T17:42:58;7.87;;;3.63;;
69890;SDS011;57170;43.964;21.262;2022-09-29T17:45:26;6.72;;;2.80;;
69890;SDS011;57170;43.964;21.262;2022-09-29T17:47:53;6.07;;;3.15;;
69890;SDS011;57170;43.964;21.262;2022-09-29T17:50:24;4.25;;;2.55;;
69890;SDS011;57170;43.964;21.262;2022-09-29T17:52:51;4.93;;;2.58;;
69890;SDS011;57170;43.964;21.262;2022-09-29T17:55:17;5.68;;;2.70;;
69890;SDS011;57170;43.964;21.262;2022-09-29T17:57:45;5.72;;;2.80;;
69890;SDS011;57170;43.964;21.262;2022-09-29T18:00:17;4.78;;;2.67;;
69890;SDS011;57170;43.964;21.262;2022-09-29T18:02:45;5.30;;;2.58;;
69890;SDS011;57170;43.964;21.262;2022-09-29T18:05:11;6.82;;;3.25;;
69890;SDS011;57170;43.964;21.262;2022-09-29T18:07:38;5.55;;;2.83;;
69890;SDS011;57170;43.964;21.262;2022-09-29T18:10:48;5.85;;;2.45;;
69890;SDS011;57170;43.964;21.262;2022-09-29T18:12:53;6.63;;;3.53;;
69890;SDS011;57170;43.964;21.262;2022-09-29T18:15:20;4.72;;;2.90;;